Time;durP1;ratioP1;P1;durP2;ratioP2;P2;SDS_P1;SDS_P2;PMS_P1;PMS_P2;Temp;Humidity;BMP_temperature;BMP_pressure;BME280_temperature;BME280_humidity;BME280_pressure;Samples;Min_cycle;Max_cycle;Signal;HPM_P1;HPM_P2
2022/11/11 00:00:23;;;;;;;9.95;6.15;;;16.00;88.70;;;;;;5017716;28;20025;-75
2022/11/11 00:02:49;;;;;;;8.68;6.28;;;16.00;88.80;;;;;;5050757;28;20071;-75
2022/11/11 00:05:15;;;;;;;9.98;6.63;;;16.00;88.90;;;;;;5039668;28;20031;-75
2022/11/11 00:07:41;;;;;;;10.07;6.00;;;16.00;88.80;;;;;;5031852;28;20033;-75
2022/11/11 00:10:07;;;;;;;10.05;6.63;;;16.00;88.80;;;;;;5030736;28;20032;-76
2022/11/11 00:12:33;;;;;;;7.60;6.05;;;16.00;88.70;;;;;;5035018;28;20017;-75
2022/11/11 00:14:59;;;;;;;11.10;6.70;;;16.00;88.80;;;;;;5051901;28;20025;-75
2022/11/11 00:25:39;;;;;;;7.75;5.78;;;16.00;88.90;;;;;;5036378;28;20040;-75
2022/11/11 00:28:05;;;;;;;10.15;5.60;;;16.00;89.90;;;;;;5033874;28;20403;-75
2022/11/11 00:30:31;;;;;;;10.10;6.45;;;16.00;88.90;;;;;;5034062;28;20032;-75
2022/11/11 00:32:56;;;;;;;8.95;6.15;;;16.00;88.90;;;;;;5054861;28;20479;-75
2022/11/11 00:38:44;;;;;;;9.75;6.05;;;16.00;89.00;;;;;;5055227;28;20561;-75
2022/11/11 00:40:57;;;;;;;8.57;6.03;;;16.00;89.00;;;;;;5053787;28;20527;-75
2022/11/11 00:43:22;;;;;;;10.98;6.30;;;16.00;89.10;;;;;;5037464;28;20093;-75
2022/11/11 00:45:48;;;;;;;10.13;5.88;;;16.10;89.10;;;;;;5054049;28;20064;-75
2022/11/11 00:50:57;;;;;;;8.13;5.78;;;16.00;89.10;;;;;;5053977;28;20036;-75
2022/11/11 00:53:25;;;;;;;8.43;5.85;;;16.00;89.10;;;;;;5053897;28;20031;-75
2022/11/11 00:55:50;;;;;;;10.07;6.03;;;16.10;89.10;;;;;;5053682;28;20023;-75
2022/11/11 00:58:16;;;;;;;7.47;5.28;;;16.00;89.10;;;;;;5053756;28;20104;-75
2022/11/11 01:00:42;;;;;;;9.18;6.05;;;16.00;89.20;;;;;;5054763;28;20029;-75
2022/11/11 01:03:08;;;;;;;10.40;5.75;;;16.00;89.20;;;;;;5037010;28;20024;-75
2022/11/11 01:05:36;;;;;;;8.23;5.60;;;16.00;89.20;;;;;;5023002;28;20033;-75
2022/11/11 01:08:02;;;;;;;9.18;5.78;;;16.00;89.20;;;;;;5033754;28;20030;-75
2022/11/11 01:10:43;;;;;;;9.63;5.70;;;16.00;89.20;;;;;;5034537;28;20506;-75
2022/11/11 01:13:35;;;;;;;10.23;5.68;;;16.00;89.20;;;;;;5042901;28;20020;-75
2022/11/11 01:16:05;;;;;;;8.20;5.63;;;16.00;89.10;;;;;;5054239;28;20041;-75
2022/11/11 01:18:31;;;;;;;8.00;5.70;;;16.00;89.20;;;;;;5020246;28;20067;-75
2022/11/11 01:21:05;;;;;;;8.20;5.43;;;16.00;89.20;;;;;;5053285;28;20029;-75
2022/11/11 01:23:32;;;;;;;9.65;5.57;;;16.00;89.20;;;;;;5053095;28;20107;-75
2022/11/11 01:26:24;;;;;;;6.25;5.03;;;16.00;89.20;;;;;;5036664;28;20047;-76
2022/11/11 01:28:50;;;;;;;6.75;5.15;;;16.00;89.20;;;;;;5022231;28;20495;-75
2022/11/11 01:31:16;;;;;;;8.38;5.03;;;16.10;89.40;;;;;;5053322;28;20028;-75
2022/11/11 01:33:42;;;;;;;7.18;5.05;;;16.00;89.30;;;;;;5036489;28;20091;-75
2022/11/11 01:36:13;;;;;;;9.60;5.28;;;16.00;89.20;;;;;;5036386;28;20423;-75
2022/11/11 01:38:38;;;;;;;7.03;4.70;;;16.10;89.20;;;;;;5036601;28;20039;-75
2022/11/11 01:41:31;;;;;;;8.30;5.07;;;16.10;89.20;;;;;;5052675;28;20503;-75
2022/11/11 01:43:51;;;;;;;11.38;5.18;;;16.00;89.20;;;;;;5052216;28;20017;-74
2022/11/11 01:46:33;;;;;;;7.22;4.97;;;16.00;89.30;;;;;;5052761;28;20079;-75
2022/11/11 01:49:20;;;;;;;7.67;5.13;;;16.00;89.20;;;;;;5037379;28;20040;-75
2022/11/11 01:52:09;;;;;;;9.45;5.35;;;16.00;89.30;;;;;;5054056;28;20099;-75
2022/11/11 01:54:34;;;;;;;9.23;5.75;;;16.00;89.20;;;;;;5052667;28;20052;-75
2022/11/11 01:57:09;;;;;;;6.50;5.15;;;16.00;89.20;;;;;;5053561;28;20087;-75
2022/11/11 01:59:35;;;;;;;5.30;4.68;;;16.10;89.20;;;;;;5036661;28;20021;-75
2022/11/11 02:02:01;;;;;;;6.78;4.75;;;16.00;89.20;;;;;;5035908;28;20480;-76
2022/11/11 02:07:11;;;;;;;7.28;4.80;;;16.00;89.20;;;;;;5032782;28;20120;-75
2022/11/11 02:09:40;;;;;;;7.43;4.88;;;16.00;89.20;;;;;;5032168;28;20112;-75
2022/11/11 02:14:52;;;;;;;9.23;4.55;;;16.00;89.20;;;;;;5032323;28;20032;-75
2022/11/11 02:17:18;;;;;;;7.22;5.18;;;16.10;89.20;;;;;;5016150;28;20014;-75
2022/11/11 02:20:03;;;;;;;7.38;4.70;;;16.00;89.10;;;;;;5033327;28;20083;-75
2022/11/11 02:22:38;;;;;;;8.05;5.28;;;16.00;89.20;;;;;;5033343;28;20028;-75
2022/11/11 02:25:05;;;;;;;6.22;4.97;;;16.10;89.20;;;;;;5033310;28;20057;-75
2022/11/11 02:27:31;;;;;;;8.00;5.25;;;16.10;90.00;;;;;;5015640;28;20095;-75
2022/11/11 02:29:58;;;;;;;9.23;4.45;;;16.10;89.20;;;;;;5015541;28;20080;-75
2022/11/11 02:32:24;;;;;;;5.57;4.32;;;16.00;89.10;;;;;;5015796;28;20022;-75
2022/11/11 02:34:50;;;;;;;7.07;4.50;;;16.00;89.20;;;;;;5032909;28;20403;-75
2022/11/11 02:37:20;;;;;;;6.03;4.80;;;16.10;89.20;;;;;;5031892;28;20084;-75
2022/11/11 02:39:47;;;;;;;8.95;4.80;;;16.10;89.20;;;;;;5031769;28;20040;-75
2022/11/11 02:42:13;;;;;;;6.43;4.55;;;16.00;89.10;;;;;;5031733;28;20057;-75
2022/11/11 02:44:39;;;;;;;7.72;4.57;;;16.10;89.20;;;;;;5015372;28;20052;-75
2022/11/11 02:47:04;;;;;;;6.85;4.45;;;16.00;89.10;;;;;;5031767;28;20156;-75
2022/11/11 02:49:30;;;;;;;7.15;4.88;;;16.00;89.30;;;;;;5032868;28;20028;-75
2022/11/11 02:51:55;;;;;;;6.55;4.43;;;16.10;89.20;;;;;;5031307;28;20507;-75
2022/11/11 02:54:21;;;;;;;6.30;4.38;;;16.10;89.10;;;;;;5032331;28;20503;-75
2022/11/11 02:59:31;;;;;;;6.45;4.57;;;16.10;89.10;;;;;;5032003;28;20043;-75
2022/11/11 03:01:56;;;;;;;7.50;4.90;;;16.10;89.10;;;;;;5032687;28;20025;-75
2022/11/11 03:04:22;;;;;;;7.75;4.45;;;16.10;89.10;;;;;;5032427;28;20076;-75
2022/11/11 03:06:48;;;;;;;5.13;4.28;;;16.10;89.10;;;;;;5031000;28;20463;-75
2022/11/11 03:09:13;;;;;;;5.97;4.15;;;16.10;89.20;;;;;;5032510;28;20048;-75
2022/11/11 03:11:39;;;;;;;6.97;4.25;;;16.10;89.20;;;;;;5014914;28;20055;-75
2022/11/11 03:14:05;;;;;;;6.70;4.20;;;16.10;89.10;;;;;;5046932;28;20029;-75
2022/11/11 03:19:15;;;;;;;6.53;4.50;;;16.10;89.10;;;;;;5051272;28;20064;-75
2022/11/11 03:21:40;;;;;;;8.18;4.00;;;16.10;89.20;;;;;;5051160;28;20053;-75
2022/11/11 03:24:06;;;;;;;6.97;4.60;;;16.10;89.20;;;;;;5052223;28;20402;-75
2022/11/11 03:26:32;;;;;;;6.10;4.22;;;16.10;89.20;;;;;;5051237;28;20070;-75
2022/11/11 03:28:57;;;;;;;6.15;4.13;;;16.10;89.20;;;;;;5051993;28;20033;-75
2022/11/11 03:31:23;;;;;;;5.00;4.10;;;16.10;89.20;;;;;;5051166;28;20395;-75
2022/11/11 03:33:49;;;;;;;6.22;4.22;;;16.10;89.30;;;;;;5034314;28;20029;-75
2022/11/11 03:36:14;;;;;;;5.63;4.53;;;16.10;89.40;;;;;;5052037;28;20051;-75
2022/11/11 03:38:40;;;;;;;5.72;4.13;;;16.10;89.30;;;;;;5052123;28;20047;-75
2022/11/11 03:41:06;;;;;;;6.43;4.38;;;16.10;89.40;;;;;;5051031;28;20024;-75
2022/11/11 03:43:33;;;;;;;5.95;4.25;;;16.10;89.40;;;;;;5050898;28;20395;-75
2022/11/11 03:46:02;;;;;;;6.15;4.25;;;16.10;89.40;;;;;;5050816;28;20025;-75
2022/11/11 03:48:30;;;;;;;5.93;4.00;;;16.10;89.40;;;;;;5050929;28;20391;-75
2022/11/11 03:50:55;;;;;;;5.43;4.20;;;16.00;89.40;;;;;;5050721;28;20021;-75
2022/11/11 03:53:22;;;;;;;6.03;4.28;;;16.10;89.40;;;;;;5051021;28;20032;-75
2022/11/11 03:55:48;;;;;;;6.00;4.10;;;16.10;89.40;;;;;;5050629;28;20029;-75
2022/11/11 03:58:14;;;;;;;5.93;4.05;;;16.10;89.50;;;;;;5034429;28;20037;-75
2022/11/11 04:00:39;;;;;;;4.93;4.00;;;16.10;89.40;;;;;;5034450;28;20036;-75
2022/11/11 04:11:23;;;;;;;5.57;3.75;;;16.10;89.50;;;;;;5034973;28;20063;-75
2022/11/11 04:16:37;;;;;;;6.95;4.05;;;16.10;89.40;;;;;;5060117;28;20592;-75
2022/11/11 04:21:48;;;;;;;4.20;3.75;;;16.10;89.50;;;;;;5073620;28;20039;-75
2022/11/11 04:27:03;;;;;;;4.90;3.85;;;16.10;89.50;;;;;;5059124;28;20154;-75
2022/11/11 04:29:29;;;;;;;3.72;3.38;;;16.10;89.50;;;;;;5056706;28;20028;-75
2022/11/11 04:34:43;;;;;;;5.20;4.03;;;16.10;89.50;;;;;;5073301;28;20074;-75
2022/11/11 04:37:09;;;;;;;5.57;3.72;;;16.10;89.50;;;;;;5056395;28;20066;-75
2022/11/11 04:42:19;;;;;;;4.82;3.60;;;16.10;89.60;;;;;;5044831;28;20548;-75
2022/11/11 04:47:29;;;;;;;4.05;3.60;;;16.10;89.60;;;;;;5044577;28;20406;-75
2022/11/11 04:49:54;;;;;;;6.13;4.20;;;16.10;89.60;;;;;;5072677;28;20032;-76
2022/11/11 04:52:26;;;;;;;5.18;4.00;;;16.10;89.70;;;;;;5073002;28;20481;-75
2022/11/11 04:57:44;;;;;;;5.90;3.92;;;16.10;89.60;;;;;;5054936;28;20148;-75
2022/11/11 05:00:11;;;;;;;7.90;3.92;;;16.10;89.70;;;;;;5053606;28;20106;-75
2022/11/11 05:05:22;;;;;;;5.65;3.83;;;16.10;89.70;;;;;;5027846;28;20089;-75
2022/11/11 05:10:32;;;;;;;6.38;3.22;;;16.10;89.70;;;;;;5033617;28;20071;-76
2022/11/11 05:21:19;;;;;;;5.20;3.78;;;16.10;89.60;;;;;;5039849;28;20025;-75
2022/11/11 05:21:29;;;;;;;5.03;3.53;;;16.10;89.60;;;;;;5054454;28;20036;-75
2022/11/11 05:26:39;;;;;;;5.03;3.60;;;16.10;89.70;;;;;;5054404;28;20043;-75
2022/11/11 05:29:05;;;;;;;3.80;3.40;;;16.10;89.70;;;;;;5054044;28;20096;-75
2022/11/11 05:31:30;;;;;;;5.40;3.30;;;16.10;89.60;;;;;;5053095;28;20108;-75
2022/11/11 05:33:56;;;;;;;4.47;3.75;;;16.10;89.70;;;;;;5053106;28;20092;-75
2022/11/11 05:36:22;;;;;;;11.88;3.70;;;16.10;89.60;;;;;;5053099;28;20120;-75
2022/11/11 05:38:48;;;;;;;3.58;3.28;;;16.10;89.60;;;;;;5036296;28;20025;-75
2022/11/11 05:41:13;;;;;;;4.80;3.78;;;16.10;89.70;;;;;;5036226;28;20399;-75
2022/11/11 05:43:39;;;;;;;4.57;3.40;;;16.10;89.60;;;;;;5052753;28;20021;-75
2022/11/11 05:46:04;;;;;;;5.90;3.42;;;16.10;89.60;;;;;;5052654;28;20032;-75
2022/11/11 05:48:31;;;;;;;3.85;3.30;;;16.10;89.60;;;;;;5053994;28;20021;-75
2022/11/11 05:51:00;;;;;;;4.50;3.00;;;16.10;89.60;;;;;;5053830;28;20028;-76
2022/11/11 05:53:27;;;;;;;10.23;3.30;;;16.10;89.60;;;;;;5045808;28;20075;-75
2022/11/11 05:55:52;;;;;;;5.50;3.17;;;16.10;89.50;;;;;;5035444;28;20044;-75
2022/11/11 05:58:18;;;;;;;4.53;3.13;;;16.10;89.50;;;;;;5034238;28;20484;-74
2022/11/11 06:00:44;;;;;;;5.45;3.53;;;16.10;89.60;;;;;;5034286;28;20480;-75
2022/11/11 06:03:10;;;;;;;3.50;3.20;;;16.10;89.60;;;;;;5033010;28;20026;-74
2022/11/11 06:05:38;;;;;;;5.50;3.63;;;16.10;89.60;;;;;;5016257;28;20034;-76
2022/11/11 06:08:04;;;;;;;8.13;3.53;;;16.10;89.70;;;;;;5032847;28;20022;-75
2022/11/11 06:10:29;;;;;;;4.88;3.30;;;16.10;89.60;;;;;;5032596;28;20510;-75
2022/11/11 06:13:04;;;;;;;4.80;3.28;;;16.20;89.70;;;;;;5039879;28;20028;-75
2022/11/11 06:15:34;;;;;;;8.20;3.55;;;16.10;89.70;;;;;;5052939;28;20067;-75
2022/11/11 06:18:01;;;;;;;4.03;3.17;;;16.10;89.70;;;;;;5053863;28;20028;-74
2022/11/11 06:20:26;;;;;;;5.45;3.55;;;16.10;89.80;;;;;;5052636;28;20056;-74
2022/11/11 06:22:55;;;;;;;5.20;2.95;;;16.10;89.70;;;;;;5052770;28;20487;-74
2022/11/11 06:28:05;;;;;;;3.10;2.90;;;16.10;89.80;;;;;;5053541;28;20091;-74
2022/11/11 06:30:31;;;;;;;4.68;3.40;;;16.10;89.80;;;;;;5053295;28;20025;-75
2022/11/11 06:32:56;;;;;;;4.30;3.22;;;16.10;89.80;;;;;;5053743;28;20376;-75
2022/11/11 06:35:22;;;;;;;5.00;3.00;;;16.10;89.80;;;;;;5053549;28;20043;-75
2022/11/11 06:37:47;;;;;;;5.88;3.03;;;16.10;89.80;;;;;;5052493;28;20048;-75
2022/11/11 06:40:13;;;;;;;5.68;3.13;;;16.10;89.80;;;;;;5052170;28;20107;-75
2022/11/11 06:42:39;;;;;;;5.93;3.28;;;16.10;89.80;;;;;;5052142;28;20083;-75
2022/11/11 06:45:05;;;;;;;5.93;3.53;;;16.10;89.80;;;;;;5053470;28;20029;-75
2022/11/11 06:47:31;;;;;;;4.28;2.88;;;16.10;89.80;;;;;;5052190;28;20051;-75
2022/11/11 06:49:56;;;;;;;7.55;3.10;;;16.10;89.80;;;;;;5053307;28;20028;-75
2022/11/11 06:52:22;;;;;;;5.00;3.15;;;16.10;89.80;;;;;;5053366;28;20049;-75
2022/11/11 06:54:48;;;;;;;4.80;3.33;;;16.10;89.90;;;;;;5053389;28;20395;-75
2022/11/11 06:57:13;;;;;;;4.18;3.08;;;16.10;89.80;;;;;;5052865;28;20049;-75
2022/11/11 06:59:39;;;;;;;4.28;2.83;;;16.10;89.80;;;;;;5052221;28;20040;-75
2022/11/11 07:02:04;;;;;;;7.63;3.25;;;16.10;89.90;;;;;;5051797;28;20021;-75
2022/11/11 07:04:30;;;;;;;4.90;3.35;;;16.10;89.80;;;;;;5047992;28;20030;-75
2022/11/11 07:06:56;;;;;;;8.18;3.17;;;16.10;89.80;;;;;;5032140;28;20022;-75
2022/11/11 07:09:24;;;;;;;4.57;3.00;;;16.10;89.80;;;;;;5031884;28;20030;-75
2022/11/11 07:11:50;;;;;;;6.80;2.80;;;16.10;89.80;;;;;;5033134;28;20028;-75
2022/11/11 07:14:15;;;;;;;4.30;3.10;;;16.10;89.80;;;;;;5048628;28;20024;-75
2022/11/11 07:16:41;;;;;;;4.60;3.00;;;16.10;89.80;;;;;;5053118;28;20027;-75
2022/11/11 07:19:07;;;;;;;4.60;3.00;;;16.10;89.80;;;;;;5051713;28;20053;-75
2022/11/11 07:21:32;;;;;;;4.25;3.08;;;16.10;89.80;;;;;;5051709;28;20101;-75
2022/11/11 07:23:58;;;;;;;7.43;3.03;;;16.10;89.80;;;;;;5052905;28;20083;-75
2022/11/11 07:26:23;;;;;;;5.85;3.00;;;16.10;89.90;;;;;;5051565;28;20029;-75
2022/11/11 07:28:50;;;;;;;3.30;2.83;;;16.10;89.90;;;;;;5051022;28;20060;-75
2022/11/11 07:31:15;;;;;;;4.25;3.10;;;16.10;90.00;;;;;;5042235;28;20025;-75
2022/11/11 07:33:41;;;;;;;3.63;2.97;;;16.10;89.90;;;;;;5032592;28;20018;-75
2022/11/11 07:36:07;;;;;;;3.63;2.85;;;16.10;89.90;;;;;;5032961;28;20052;-75
2022/11/11 07:38:32;;;;;;;6.03;3.20;;;16.10;89.90;;;;;;5032796;28;20096;-75
2022/11/11 07:40:58;;;;;;;6.95;3.22;;;16.10;89.90;;;;;;5031648;28;20029;-75
2022/11/11 07:43:24;;;;;;;4.90;3.10;;;16.10;89.90;;;;;;5036916;28;20464;-75
2022/11/11 07:45:50;;;;;;;3.17;2.80;;;16.10;89.80;;;;;;5035281;28;20037;-75
2022/11/11 07:48:15;;;;;;;8.07;2.88;;;16.10;89.90;;;;;;5046181;28;20041;-76
2022/11/11 07:50:41;;;;;;;4.78;3.20;;;16.10;89.90;;;;;;5028939;28;20040;-75
2022/11/11 07:53:07;;;;;;;2.58;2.38;;;16.10;89.90;;;;;;5035047;28;20112;-75
2022/11/11 07:55:32;;;;;;;3.45;2.60;;;16.10;90.00;;;;;;5035449;28;20100;-76
2022/11/11 07:57:58;;;;;;;4.03;2.70;;;16.10;90.00;;;;;;5035225;28;20045;-75
2022/11/11 08:00:24;;;;;;;3.38;2.38;;;16.10;89.80;;;;;;5042492;28;20029;-74
2022/11/11 08:02:50;;;;;;;4.40;2.58;;;16.10;89.60;;;;;;5043474;28;20021;-75
2022/11/11 08:05:16;;;;;;;3.40;2.38;;;16.10;89.70;;;;;;5034454;28;20407;-75
2022/11/11 08:07:41;;;;;;;2.88;2.50;;;16.10;89.50;;;;;;5044302;28;20020;-75
2022/11/11 08:10:08;;;;;;;3.08;2.60;;;16.10;89.30;;;;;;5041262;28;20553;-75
2022/11/11 08:15:18;;;;;;;3.28;2.10;;;16.00;88.90;;;;;;5054768;28;20028;-75
2022/11/11 08:17:43;;;;;;;5.03;2.58;;;16.10;88.80;;;;;;5037975;28;20025;-75
2022/11/11 08:20:09;;;;;;;3.67;2.15;;;16.10;88.80;;;;;;5036706;28;20026;-75
2022/11/11 08:22:39;;;;;;;2.17;1.98;;;16.10;88.70;;;;;;5037038;28;20076;-74
2022/11/11 08:25:06;;;;;;;2.80;2.20;;;16.00;88.60;;;;;;5039437;28;20112;-74
2022/11/11 08:27:32;;;;;;;6.50;2.28;;;16.10;88.60;;;;;;5023614;28;20036;-75
2022/11/11 08:29:58;;;;;;;2.22;2.03;;;16.10;88.50;;;;;;5044000;28;20025;-75
2022/11/11 08:32:23;;;;;;;3.13;2.00;;;16.10;88.50;;;;;;5038843;28;20391;-75
2022/11/11 08:34:49;;;;;;;5.10;2.88;;;16.00;88.40;;;;;;5043267;28;20017;-74
2022/11/11 08:37:14;;;;;;;28.00;4.57;;;16.10;88.40;;;;;;5051653;28;20029;-75
2022/11/11 08:39:40;;;;;;;22.98;5.07;;;16.10;88.60;;;;;;5042959;28;20139;-75
2022/11/11 08:42:06;;;;;;;23.30;4.13;;;16.00;88.70;;;;;;5045217;28;20021;-75
2022/11/11 08:44:31;;;;;;;27.70;4.65;;;16.00;88.80;;;;;;5033249;28;20484;-75
2022/11/11 08:46:57;;;;;;;29.77;5.00;;;16.00;88.90;;;;;;5047257;28;20064;-75
2022/11/11 08:49:23;;;;;;;26.65;4.82;;;16.00;88.80;;;;;;5052868;28;20056;-75
2022/11/11 08:51:48;;;;;;;18.58;4.25;;;16.00;88.90;;;;;;5054129;28;20104;-75
2022/11/11 08:54:14;;;;;;;19.35;4.18;;;16.00;88.90;;;;;;5050599;28;20394;-75
2022/11/11 08:56:40;;;;;;;20.33;4.22;;;16.00;88.90;;;;;;5033380;28;20506;-75
2022/11/11 08:59:05;;;;;;;25.13;4.95;;;16.00;88.90;;;;;;5033999;28;20026;-76
2022/11/11 09:01:32;;;;;;;22.45;4.53;;;16.00;88.90;;;;;;5033798;28;20053;-75
2022/11/11 09:03:58;;;;;;;20.45;4.22;;;16.00;88.90;;;;;;5033368;28;20029;-75
2022/11/11 09:06:23;;;;;;;42.40;5.18;;;16.00;89.90;;;;;;5033445;28;20395;-75
2022/11/11 09:08:49;;;;;;;19.73;4.85;;;16.00;88.90;;;;;;5034932;28;20022;-75
2022/11/11 09:11:15;;;;;;;20.15;4.75;;;16.00;88.80;;;;;;5035650;28;20029;-75
2022/11/11 09:13:40;;;;;;;26.85;5.20;;;16.00;88.80;;;;;;5053466;28;20024;-75
2022/11/11 09:16:07;;;;;;;17.02;4.88;;;16.00;88.90;;;;;;5053395;28;20048;-75
2022/11/11 09:18:32;;;;;;;21.20;4.50;;;16.00;88.80;;;;;;5053240;28;20021;-75
2022/11/11 09:21:01;;;;;;;14.10;4.25;;;16.00;88.80;;;;;;5053410;28;20116;-75
2022/11/11 09:23:26;;;;;;;17.95;4.55;;;16.00;88.80;;;;;;5054086;28;20079;-75
2022/11/11 09:25:52;;;;;;;14.13;4.28;;;16.00;88.80;;;;;;5053362;28;20052;-75
2022/11/11 09:28:18;;;;;;;20.98;4.40;;;16.00;88.80;;;;;;5054288;28;20025;-75
2022/11/11 09:30:43;;;;;;;19.92;4.45;;;16.00;88.80;;;;;;5053090;28;20551;-75
2022/11/11 09:33:11;;;;;;;13.48;3.40;;;16.00;88.70;;;;;;5054302;28;20042;-75
2022/11/11 09:35:37;;;;;;;19.33;4.43;;;16.00;88.70;;;;;;5036630;28;20052;-75
2022/11/11 09:38:03;;;;;;;17.35;4.60;;;16.00;88.70;;;;;;5033757;28;20040;-75
2022/11/11 09:40:55;;;;;;;11.50;3.83;;;16.00;88.70;;;;;;5033040;28;20091;-75
2022/11/11 09:43:43;;;;;;;21.35;4.50;;;16.00;88.70;;;;;;5033745;28;20030;-75
2022/11/11 09:46:24;;;;;;;13.43;3.70;;;16.00;88.60;;;;;;5041523;28;20086;-75
2022/11/11 09:48:57;;;;;;;14.18;4.18;;;16.00;88.60;;;;;;5053925;28;20079;-75
2022/11/11 09:51:44;;;;;;;13.00;3.67;;;16.00;88.60;;;;;;5036771;28;20422;-75
2022/11/11 09:54:14;;;;;;;11.18;3.47;;;15.90;88.60;;;;;;5038936;28;20076;-75
2022/11/11 09:56:40;;;;;;;10.57;3.55;;;16.00;88.60;;;;;;5019624;28;20037;-75
2022/11/11 09:59:18;;;;;;;15.73;4.25;;;15.90;88.60;;;;;;5052777;28;20044;-75
2022/11/11 10:01:57;;;;;;;14.68;3.80;;;15.90;88.50;;;;;;5036320;28;20502;-75
2022/11/11 10:04:29;;;;;;;16.77;4.10;;;15.90;88.50;;;;;;5025468;28;20014;-75
2022/11/11 10:06:59;;;;;;;18.20;4.20;;;15.90;88.50;;;;;;5033393;28;20101;-75
2022/11/11 10:09:33;;;;;;;12.45;3.75;;;15.90;88.50;;;;;;5016153;28;20021;-75
2022/11/11 10:12:17;;;;;;;15.00;3.63;;;15.90;88.40;;;;;;5016513;28;20029;-75
2022/11/11 10:14:45;;;;;;;11.68;4.25;;;15.90;89.40;;;;;;5016382;28;20027;-75
2022/11/11 10:17:48;;;;;;;9.88;3.17;;;15.90;88.40;;;;;;5016357;28;20025;-75
2022/11/11 10:20:17;;;;;;;13.27;3.67;;;15.90;88.40;;;;;;5033276;28;20499;-75
2022/11/11 10:22:44;;;;;;;12.93;3.58;;;15.90;88.40;;;;;;5033498;28;20029;-75
2022/11/11 10:25:12;;;;;;;10.75;3.47;;;15.90;88.40;;;;;;5015812;28;20037;-75
2022/11/11 10:27:42;;;;;;;16.73;4.00;;;15.90;88.30;;;;;;5032118;28;20415;-75
2022/11/11 10:30:13;;;;;;;13.27;3.55;;;15.90;88.40;;;;;;5016012;28;20034;-75
2022/11/11 10:32:39;;;;;;;8.32;3.45;;;15.90;88.40;;;;;;5015583;28;20028;-75
2022/11/11 10:35:26;;;;;;;14.00;3.78;;;15.90;88.30;;;;;;5031844;28;20104;-75
2022/11/11 10:38:05;;;;;;;16.63;3.70;;;15.90;88.30;;;;;;5031802;28;20009;-75
2022/11/11 10:40:48;;;;;;;15.20;3.60;;;15.90;88.30;;;;;;5031997;28;20029;-75
2022/11/11 10:43:25;;;;;;;15.35;4.03;;;15.90;88.30;;;;;;5017009;28;20037;-75
2022/11/11 10:46:05;;;;;;;9.82;3.15;;;15.90;88.20;;;;;;5018417;28;20064;-75
2022/11/11 10:48:42;;;;;;;12.85;3.63;;;15.90;88.20;;;;;;5031560;28;20029;-75
2022/11/11 10:51:08;;;;;;;11.20;3.60;;;15.90;88.30;;;;;;5031732;28;20029;-75
2022/11/11 10:54:06;;;;;;;11.07;3.25;;;15.90;88.20;;;;;;5031715;28;20067;-75
2022/11/11 10:56:36;;;;;;;10.55;2.72;;;15.90;88.20;;;;;;5031647;28;20499;-75
2022/11/11 10:59:18;;;;;;;8.55;3.47;;;15.90;88.30;;;;;;5032951;28;20104;-75
2022/11/11 11:02:05;;;;;;;10.07;2.95;;;15.90;88.20;;;;;;5032894;28;20398;-75
2022/11/11 11:04:51;;;;;;;8.07;3.28;;;15.80;88.10;;;;;;5029341;28;20396;-75
2022/11/11 11:07:25;;;;;;;12.55;4.03;;;15.90;88.20;;;;;;5016694;28;20021;-75
2022/11/11 11:10:11;;;;;;;9.80;3.70;;;15.90;88.10;;;;;;5015895;28;20021;-75
2022/11/11 11:12:54;;;;;;;10.18;3.38;;;15.90;88.10;;;;;;5015768;28;20100;-75
2022/11/11 11:15:21;;;;;;;9.70;3.20;;;15.80;88.10;;;;;;5031068;28;20025;-75
2022/11/11 11:18:09;;;;;;;14.65;3.40;;;15.90;88.20;;;;;;5014312;28;20026;-75
2022/11/11 11:20:35;;;;;;;8.75;2.85;;;15.90;88.10;;;;;;5031334;28;20053;-75
2022/11/11 11:23:01;;;;;;;11.30;3.25;;;15.80;88.00;;;;;;5031249;28;20033;-75
2022/11/11 11:25:32;;;;;;;10.30;3.38;;;15.90;89.10;;;;;;5031255;28;20071;-75
2022/11/11 11:28:24;;;;;;;8.80;3.13;;;15.80;88.00;;;;;;5031122;28;20519;-75
2022/11/11 11:31:03;;;;;;;7.78;3.03;;;15.90;88.00;;;;;;5030690;28;20042;-75
2022/11/11 11:33:49;;;;;;;7.45;3.08;;;15.90;88.00;;;;;;5031098;28;20106;-75
2022/11/11 11:36:16;;;;;;;10.60;2.95;;;15.90;88.10;;;;;;5031117;28;20030;-75
2022/11/11 11:38:45;;;;;;;8.65;2.95;;;15.90;88.00;;;;;;5014710;28;20045;-75
2022/11/11 11:41:11;;;;;;;8.90;2.80;;;15.90;88.10;;;;;;5031147;28;20484;-75
2022/11/11 11:43:43;;;;;;;7.68;3.00;;;15.90;88.00;;;;;;5031147;28;20155;-75
2022/11/11 11:46:33;;;;;;;6.55;2.50;;;15.80;88.00;;;;;;5039614;28;20028;-75
2022/11/11 11:49:25;;;;;;;7.70;3.00;;;15.90;88.00;;;;;;5035158;28;20057;-75
2022/11/11 11:52:03;;;;;;;7.32;2.90;;;15.90;88.10;;;;;;5052154;28;20453;-75
2022/11/11 11:54:38;;;;;;;8.07;2.72;;;15.90;88.00;;;;;;5035447;28;20422;-75
2022/11/11 11:57:27;;;;;;;7.45;3.30;;;15.80;88.00;;;;;;5051886;28;20049;-75
2022/11/11 12:00:02;;;;;;;8.40;3.10;;;15.90;88.00;;;;;;5050711;28;20048;-75
2022/11/11 12:02:47;;;;;;;4.50;2.80;;;15.90;88.00;;;;;;5051921;28;20039;-75
2022/11/11 12:05:16;;;;;;;12.77;3.28;;;15.90;88.00;;;;;;5050954;28;20025;-75
2022/11/11 12:08:38;;;;;;;6.97;2.65;;;15.90;88.10;;;;;;5030721;28;20052;-75
2022/11/11 12:11:27;;;;;;;7.70;2.80;;;15.80;88.00;;;;;;5029722;28;20126;-75
2022/11/11 12:14:20;;;;;;;8.20;3.00;;;15.90;88.10;;;;;;4932530;29;20032;-75
2022/11/11 12:16:51;;;;;;;6.95;2.97;;;15.90;88.00;;;;;;4918545;29;20451;-75
2022/11/11 12:19:50;;;;;;;7.68;2.95;;;15.90;88.10;;;;;;4917379;29;20075;-75
2022/11/11 12:22:28;;;;;;;7.88;3.15;;;15.90;88.00;;;;;;4932694;29;20046;-75
2022/11/11 12:25:15;;;;;;;7.45;2.75;;;15.90;89.00;;;;;;4917094;29;20036;-75
2022/11/11 12:28:01;;;;;;;8.63;3.17;;;15.90;88.00;;;;;;4933663;29;20044;-75
2022/11/11 12:30:29;;;;;;;7.95;3.35;;;15.90;88.00;;;;;;4919987;29;20039;-75
2022/11/11 12:33:16;;;;;;;7.50;2.30;;;15.90;88.00;;;;;;4936014;29;20103;-75
2022/11/11 12:36:05;;;;;;;6.43;2.75;;;15.90;88.00;;;;;;4936063;29;20064;-75
2022/11/11 12:38:52;;;;;;;8.80;2.63;;;15.90;88.00;;;;;;4920122;29;20032;-75
2022/11/11 12:42:03;;;;;;;7.30;2.65;;;15.90;88.00;;;;;;4954549;28;20070;-75
2022/11/11 12:44:35;;;;;;;8.30;2.88;;;15.90;88.00;;;;;;4974267;28;20050;-75
2022/11/11 12:47:16;;;;;;;8.18;2.47;;;15.90;88.00;;;;;;4957968;28;20031;-75
2022/11/11 12:50:06;;;;;;;8.93;2.67;;;15.90;88.00;;;;;;4973921;28;20062;-75
2022/11/11 12:52:44;;;;;;;8.57;2.50;;;15.90;88.00;;;;;;5033197;28;20596;-75
2022/11/11 12:55:37;;;;;;;7.70;2.78;;;15.90;88.10;;;;;;5032997;28;20041;-75
2022/11/11 12:58:02;;;;;;;;;;;15.90;88.10;;;;;;5033213;28;20128;-75
2022/11/11 13:00:28;;;;;;;4.55;1.90;;;16.00;88.10;;;;;;5016100;28;20429;-75
2022/11/11 13:03:30;;;;;;;7.32;2.20;;;16.00;88.20;;;;;;5016197;28;20045;-75
2022/11/11 13:06:10;;;;;;;5.68;2.13;;;16.00;88.20;;;;;;5032725;28;20028;-75
2022/11/11 13:08:54;;;;;;;6.60;2.40;;;16.00;88.20;;;;;;4999896;28;20092;-75
2022/11/11 13:11:25;;;;;;;3.40;1.95;;;16.00;88.20;;;;;;5016900;28;20518;-75
2022/11/11 13:14:17;;;;;;;5.63;2.28;;;16.00;88.30;;;;;;4999821;28;20030;-75
2022/11/11 13:16:43;;;;;;;6.53;2.45;;;16.00;88.20;;;;;;5034660;28;20484;-75
2022/11/11 13:19:28;;;;;;;5.13;2.42;;;16.00;88.20;;;;;;5033469;28;20083;-75
2022/11/11 13:21:59;;;;;;;6.55;2.55;;;16.00;88.20;;;;;;5033238;28;20021;-75
2022/11/11 13:24:25;;;;;;;5.10;2.05;;;16.00;88.20;;;;;;5017616;28;20022;-75
2022/11/11 13:27:02;;;;;;;6.30;2.47;;;16.00;88.20;;;;;;5016861;28;20013;-75
2022/11/11 13:29:41;;;;;;;6.75;2.60;;;16.00;88.20;;;;;;5033241;28;20025;-75
2022/11/11 13:32:09;;;;;;;5.97;2.50;;;16.10;88.30;;;;;;5034479;28;20064;-75
2022/11/11 13:34:35;;;;;;;5.50;2.08;;;16.00;88.20;;;;;;5033192;28;20022;-75
2022/11/11 13:37:02;;;;;;;5.97;2.25;;;16.10;88.30;;;;;;5016492;28;20108;-75
2022/11/11 13:39:37;;;;;;;4.75;2.22;;;16.10;88.30;;;;;;5016112;28;20391;-75
2022/11/11 13:42:02;;;;;;;6.55;2.13;;;16.10;88.20;;;;;;5017094;28;20026;-75
2022/11/11 13:44:33;;;;;;;5.93;2.10;;;16.00;88.20;;;;;;5032874;28;20034;-75
2022/11/11 13:47:04;;;;;;;6.60;2.30;;;16.10;88.20;;;;;;5017110;28;20128;-75
2022/11/11 13:49:57;;;;;;;6.03;2.30;;;16.10;88.20;;;;;;5033011;28;20029;-75
2022/11/11 13:52:27;;;;;;;;;;;16.10;88.10;;;;;;5033359;28;20105;-75
2022/11/11 13:55:02;;;;;;;5.70;2.13;;;16.10;88.10;;;;;;5032823;28;19940;-75
2022/11/11 13:57:28;;;;;;;4.57;2.13;;;16.00;88.10;;;;;;5032300;28;20045;-75
2022/11/11 14:00:05;;;;;;;4.13;2.17;;;16.10;88.10;;;;;;5032711;28;20080;-75
2022/11/11 14:02:34;;;;;;;7.72;2.60;;;16.10;89.10;;;;;;5032732;28;20542;-75
2022/11/11 14:05:07;;;;;;;5.10;2.17;;;16.10;88.10;;;;;;5032618;28;20570;-75
2022/11/11 14:07:46;;;;;;;5.22;2.15;;;16.10;88.10;;;;;;5048513;28;20061;-75
2022/11/11 14:10:17;;;;;;;5.60;2.10;;;16.10;88.00;;;;;;5052148;28;20025;-75
2022/11/11 14:12:53;;;;;;;2.80;1.67;;;16.10;88.00;;;;;;5053422;28;20480;-75
2022/11/11 14:15:44;;;;;;;7.00;2.53;;;16.10;88.00;;;;;;5035888;28;20023;-75